createdAt,value
2019-05-02T00:00:52.865Z,10.80
2019-05-02T00:03:23.167Z,10.80
2019-05-02T00:05:52.786Z,10.80
2019-05-02T00:08:22.693Z,10.70
2019-05-02T00:10:51.559Z,10.60
2019-05-02T00:13:20.775Z,10.60
2019-05-02T00:15:51.019Z,10.60
2019-05-02T00:18:22.237Z,10.60
2019-05-02T00:20:51.335Z,10.50
2019-05-02T00:23:22.961Z,10.60
2019-05-02T00:25:52.495Z,10.50
2019-05-02T00:28:21.640Z,10.60
2019-05-02T00:30:50.849Z,10.60
2019-05-02T00:33:19.737Z,10.70
2019-05-02T00:35:48.991Z,10.70
2019-05-02T00:38:18.608Z,10.80
2019-05-02T00:40:47.584Z,10.90
2019-05-02T00:43:16.360Z,10.90
2019-05-02T00:45:45.353Z,11.00
2019-05-02T00:48:26.195Z,11.10
2019-05-02T00:50:55.198Z,11.30
2019-05-02T00:53:24.286Z,11.40
2019-05-02T00:55:53.240Z,11.50
2019-05-02T00:58:21.965Z,11.50
2019-05-02T01:01:09.080Z,11.50
2019-05-02T01:03:39.695Z,11.50
2019-05-02T01:06:13.646Z,11.50
2019-05-02T01:08:39.623Z,11.40
2019-05-02T01:11:08.790Z,11.30
2019-05-02T01:13:37.626Z,11.00
2019-05-02T01:16:06.894Z,11.00
2019-05-02T01:18:37.184Z,11.00
2019-05-02T01:21:06.553Z,11.00
2019-05-02T01:23:35.313Z,11.00
2019-05-02T01:26:04.194Z,10.90
2019-05-02T01:28:54.202Z,10.90
2019-05-02T01:31:29.114Z,10.80
2019-05-02T01:34:05.083Z,10.80
2019-05-02T01:36:41.051Z,10.80
2019-05-02T01:39:11.275Z,10.80
2019-05-02T01:41:40.070Z,10.80
2019-05-02T01:44:08.771Z,10.80
2019-05-02T01:46:38.075Z,11.00
2019-05-02T01:49:06.943Z,11.10
2019-05-02T01:51:36.854Z,11.10
2019-05-02T01:54:09.955Z,11.10
2019-05-02T01:56:36.835Z,11.00
2019-05-02T01:59:05.719Z,11.00
2019-05-02T02:01:34.958Z,11.00
2019-05-02T02:04:03.826Z,11.10
2019-05-02T02:06:32.668Z,11.00
2019-05-02T02:09:03.407Z,11.10
2019-05-02T02:11:33.913Z,11.10
2019-05-02T02:14:07.145Z,11.20
2019-05-02T02:16:35.214Z,11.20
2019-05-02T02:19:11.750Z,11.20
2019-05-02T02:21:47.495Z,11.10
2019-05-02T02:24:25.131Z,11.00
2019-05-02T02:26:52.048Z,11.00
2019-05-02T02:29:21.906Z,11.00
2019-05-02T02:31:50.786Z,11.10
2019-05-02T02:34:29.048Z,11.10
2019-05-02T02:36:50.300Z,11.00
2019-05-02T02:39:19.465Z,11.00
2019-05-02T02:41:52.126Z,11.00
2019-05-02T02:44:39.756Z,11.10
2019-05-02T02:47:05.494Z,11.10
2019-05-02T02:49:34.640Z,11.20
2019-05-02T02:52:04.941Z,11.30
2019-05-02T02:54:36.604Z,11.30
2019-05-02T02:57:04.939Z,11.30
2019-05-02T02:59:33.837Z,11.30
2019-05-02T03:02:10.062Z,11.40
2019-05-02T03:04:33.616Z,11.40
2019-05-02T03:07:02.557Z,11.50
2019-05-02T03:09:31.295Z,11.50
2019-05-02T03:12:41.427Z,11.50
2019-05-02T03:15:13.189Z,11.50
2019-05-02T03:17:42.060Z,11.50
2019-05-02T03:20:10.877Z,11.50
2019-05-02T03:22:42.042Z,11.50
2019-05-02T03:25:10.947Z,11.50
2019-05-02T03:27:40.542Z,11.40
2019-05-02T03:30:09.590Z,11.30
2019-05-02T03:32:38.857Z,11.30
2019-05-02T03:35:07.741Z,11.30
2019-05-02T03:37:37.348Z,11.20
2019-05-02T03:40:06.593Z,11.20
2019-05-02T03:42:43.758Z,11.20
2019-05-02T03:45:06.451Z,11.20
2019-05-02T03:47:37.048Z,11.30
2019-05-02T03:50:08.852Z,11.30
2019-05-02T03:52:43.532Z,11.30
2019-05-02T03:55:08.097Z,11.20
2019-05-02T03:57:41.365Z,11.20
2019-05-02T04:00:13.988Z,11.10
2019-05-02T04:02:40.222Z,11.10
2019-05-02T04:05:10.023Z,11.10
2019-05-02T04:07:40.855Z,11.10
2019-05-02T04:10:20.215Z,11.10
2019-05-02T04:12:45.369Z,11.10
2019-05-02T04:15:14.181Z,11.10
2019-05-02T04:17:43.466Z,11.20
2019-05-02T04:20:12.917Z,11.10
2019-05-02T04:22:48.934Z,11.10
2019-05-02T04:25:14.295Z,11.10
2019-05-02T04:27:43.740Z,11.00
2019-05-02T04:30:14.243Z,11.10
2019-05-02T04:32:49.870Z,11.00
2019-05-02T04:35:15.052Z,11.00
2019-05-02T04:37:43.954Z,11.10
2019-05-02T04:40:12.986Z,11.10
2019-05-02T04:42:41.864Z,11.20
2019-05-02T04:45:24.384Z,11.20
2019-05-02T04:47:42.482Z,11.20
2019-05-02T04:50:18.072Z,11.20
2019-05-02T04:52:51.199Z,11.20
2019-05-02T04:55:21.340Z,11.10
2019-05-02T04:57:47.405Z,11.00
2019-05-02T05:00:18.305Z,11.10
2019-05-02T05:02:48.388Z,11.10
2019-05-02T05:05:25.336Z,11.20
2019-05-02T05:07:49.464Z,11.20
2019-05-02T05:10:18.943Z,11.20
2019-05-02T05:12:48.065Z,11.20
2019-05-02T05:15:33.703Z,11.30
2019-05-02T05:17:47.889Z,11.30
2019-05-02T05:20:18.410Z,11.30
2019-05-02T05:22:48.207Z,11.30
2019-05-02T05:25:22.752Z,11.40
2019-05-02T05:27:52.775Z,11.40
2019-05-02T05:30:22.498Z,11.40
2019-05-02T05:32:51.586Z,11.40
2019-05-02T05:35:20.326Z,11.50
2019-05-02T05:37:52.906Z,11.40
2019-05-02T05:40:25.790Z,11.30
2019-05-02T05:42:50.718Z,11.20
2019-05-02T05:45:19.732Z,11.20
2019-05-02T05:47:52.483Z,11.20
2019-05-02T05:50:19.465Z,11.10
2019-05-02T05:52:48.316Z,11.20
2019-05-02T05:55:20.374Z,11.20
2019-05-02T05:57:49.984Z,11.10
2019-05-02T06:00:22.934Z,11.10
2019-05-02T06:02:56.078Z,11.10
2019-05-02T06:05:21.290Z,11.20
2019-05-02T06:07:50.084Z,11.40
2019-05-02T06:10:18.920Z,11.30
2019-05-02T06:12:48.041Z,11.30
2019-05-02T06:15:16.944Z,11.40
2019-05-02T06:17:45.983Z,11.50
2019-05-02T06:20:14.989Z,11.50
2019-05-02T06:22:43.810Z,11.60
2019-05-02T06:25:13.404Z,11.60
2019-05-02T06:27:42.130Z,11.70
2019-05-02T06:30:11.786Z,11.70
2019-05-02T06:32:40.612Z,11.90
2019-05-02T06:35:10.170Z,11.90
2019-05-02T06:37:40.766Z,11.70
2019-05-02T06:40:09.983Z,11.70
2019-05-02T06:42:38.877Z,11.80
2019-05-02T06:45:09.241Z,11.90
2019-05-02T06:47:41.573Z,12.20
2019-05-02T06:50:09.423Z,12.20
2019-05-02T06:52:38.833Z,12.10
2019-05-02T06:55:08.502Z,12.10
2019-05-02T06:57:37.258Z,12.10
2019-05-02T07:00:07.526Z,12.20
2019-05-02T07:02:36.400Z,12.30
2019-05-02T07:05:06.139Z,12.60
2019-05-02T07:07:37.084Z,12.90
2019-05-02T07:10:07.510Z,13.10
2019-05-02T07:12:36.533Z,13.00
2019-05-02T07:15:08.520Z,12.60
2019-05-02T07:17:41.903Z,12.30
2019-05-02T07:20:11.525Z,12.40
2019-05-02T07:22:40.840Z,12.60
2019-05-02T07:25:10.788Z,12.80
2019-05-02T07:27:39.551Z,13.00
2019-05-02T07:30:10.806Z,13.10
2019-05-02T07:32:39.563Z,13.30
2019-05-02T07:35:08.523Z,13.40
2019-05-02T07:37:37.230Z,13.50
2019-05-02T07:40:12.113Z,13.40
2019-05-02T07:42:41.735Z,13.50
2019-05-02T07:45:10.693Z,13.10
2019-05-02T07:47:40.341Z,13.10
2019-05-02T07:50:11.813Z,13.10
2019-05-02T07:52:41.340Z,13.30
2019-05-02T07:55:11.182Z,13.10
2019-05-02T07:57:39.920Z,13.00
2019-05-02T08:00:10.056Z,13.30
2019-05-02T08:02:38.855Z,13.20
2019-05-02T08:05:08.943Z,13.60
2019-05-02T08:07:38.058Z,13.70
2019-05-02T08:10:07.216Z,13.90
2019-05-02T08:12:36.025Z,13.90
2019-05-02T08:15:07.475Z,14.00
2019-05-02T08:17:36.301Z,14.20
2019-05-02T08:20:08.545Z,14.40
2019-05-02T08:22:36.599Z,14.80
2019-05-02T08:25:10.589Z,14.70
2019-05-02T08:27:54.439Z,14.40
2019-05-02T08:30:35.273Z,13.80
2019-05-02T08:33:04.168Z,14.10
2019-05-02T08:35:33.308Z,14.20
2019-05-02T08:38:02.072Z,14.40
2019-05-02T08:40:30.849Z,14.40
2019-05-02T08:43:03.555Z,14.60
2019-05-02T08:45:32.919Z,14.70
2019-05-02T08:48:05.120Z,14.90
2019-05-02T08:50:31.944Z,14.90
2019-05-02T08:53:01.974Z,14.40
2019-05-02T08:55:30.767Z,14.10
2019-05-02T08:57:59.561Z,14.90
2019-05-02T09:00:32.232Z,15.40
2019-05-02T09:03:02.762Z,15.60
2019-05-02T09:05:29.590Z,16.10
2019-05-02T09:07:58.345Z,16.00
2019-05-02T09:10:27.087Z,15.70
2019-05-02T09:12:55.875Z,16.60
2019-05-02T09:15:24.703Z,17.30
2019-05-02T09:17:56.392Z,17.40
2019-05-02T09:20:24.355Z,16.90
2019-05-02T09:22:55.902Z,17.10
2019-05-02T09:25:23.848Z,16.70
2019-05-02T09:27:52.790Z,17.50
2019-05-02T09:30:25.548Z,17.30
2019-05-02T09:32:52.484Z,17.50
2019-05-02T09:35:23.129Z,18.20
2019-05-02T09:37:52.323Z,18.50
2019-05-02T09:40:22.235Z,18.10
2019-05-02T09:42:56.492Z,17.30
2019-05-02T09:45:35.459Z,16.80
2019-05-02T09:48:05.246Z,16.70
2019-05-02T09:50:31.371Z,17.10
2019-05-02T09:53:01.733Z,17.70
2019-05-02T09:55:31.801Z,18.70
2019-05-02T09:58:02.721Z,18.80
2019-05-02T10:00:46.290Z,19.40
2019-05-02T10:03:16.719Z,19.10
2019-05-02T10:05:45.704Z,18.90
2019-05-02T10:08:14.961Z,18.50
2019-05-02T10:10:45.956Z,19.40
2019-05-02T10:13:14.842Z,19.60
2019-05-02T10:15:43.656Z,19.90
2019-05-02T10:18:14.643Z,19.90
2019-05-02T10:20:43.695Z,20.50
2019-05-02T10:23:19.619Z,20.40
2019-05-02T10:25:46.723Z,21.10
2019-05-02T10:28:15.571Z,21.60
2019-05-02T10:30:47.510Z,21.30
2019-05-02T10:33:15.647Z,21.50
2019-05-02T10:35:46.032Z,21.40
2019-05-02T10:38:19.259Z,21.40
2019-05-02T10:40:48.313Z,21.50
2019-05-02T10:43:15.844Z,21.10
2019-05-02T10:45:47.437Z,20.90
2019-05-02T10:48:25.769Z,20.60
2019-05-02T10:50:52.490Z,20.90
2019-05-02T10:53:21.898Z,21.10
2019-05-02T10:55:52.355Z,21.80
2019-05-02T10:58:26.152Z,22.40
2019-05-02T11:00:52.325Z,22.80
2019-05-02T11:03:38.108Z,22.40
2019-05-02T11:06:07.949Z,22.20
2019-05-02T11:08:42.240Z,22.40
2019-05-02T11:11:08.089Z,22.20
2019-05-02T11:14:05.900Z,22.40
2019-05-02T11:16:45.385Z,22.20
2019-05-02T11:19:18.825Z,21.70
2019-05-02T11:21:56.291Z,21.80
2019-05-02T11:24:18.181Z,21.70
2019-05-02T11:26:47.209Z,22.00
2019-05-02T11:29:15.922Z,22.70
2019-05-02T11:31:44.973Z,23.40
2019-05-02T11:34:14.068Z,23.70
2019-05-02T11:36:42.847Z,22.90
2019-05-02T11:39:20.153Z,22.10
2019-05-02T11:41:42.353Z,21.70
2019-05-02T11:44:12.223Z,21.40
2019-05-02T11:46:42.903Z,22.10
2019-05-02T11:49:12.251Z,22.70
2019-05-02T11:51:42.133Z,23.20
2019-05-02T11:54:12.893Z,23.00
2019-05-02T11:56:48.757Z,21.90
2019-05-02T11:59:14.789Z,22.20
2019-05-02T12:01:57.649Z,23.00
2019-05-02T12:04:17.175Z,21.90
2019-05-02T12:06:49.952Z,20.60
2019-05-02T12:09:16.619Z,20.60
2019-05-02T12:11:47.429Z,21.00
2019-05-02T12:14:16.082Z,21.50
2019-05-02T12:16:45.175Z,21.40
2019-05-02T12:19:14.914Z,22.40
2019-05-02T12:21:53.219Z,23.10
2019-05-02T12:24:22.206Z,23.40
2019-05-02T12:26:52.861Z,22.30
2019-05-02T12:29:21.901Z,21.70
2019-05-02T12:31:52.679Z,22.30
2019-05-02T12:34:21.876Z,22.80
2019-05-02T12:36:52.314Z,23.10
2019-05-02T12:39:22.270Z,22.40
2019-05-02T12:41:53.246Z,21.10
2019-05-02T12:44:22.295Z,21.00
2019-05-02T12:46:51.763Z,21.40
2019-05-02T12:49:27.039Z,21.30
2019-05-02T12:51:52.580Z,20.50
2019-05-02T12:54:22.009Z,20.00
2019-05-02T12:56:52.830Z,19.00
2019-05-02T12:59:22.523Z,18.80
2019-05-02T13:01:51.930Z,19.10
2019-05-02T13:04:22.817Z,19.90
2019-05-02T13:06:53.103Z,20.40
2019-05-02T13:09:23.346Z,19.60
2019-05-02T13:11:58.775Z,20.30
2019-05-02T13:14:31.862Z,21.00
2019-05-02T13:17:03.893Z,21.40
2019-05-02T13:19:39.956Z,21.80
2019-05-02T13:22:12.483Z,22.70
2019-05-02T13:24:47.056Z,22.40
2019-05-02T13:27:16.419Z,22.40
2019-05-02T13:29:45.501Z,22.50
2019-05-02T13:32:56.126Z,22.40
2019-05-02T13:35:51.903Z,21.90
2019-05-02T13:38:22.602Z,22.20
2019-05-02T13:40:51.837Z,22.70
2019-05-02T13:43:23.008Z,23.00
2019-05-02T13:46:02.223Z,21.40
2019-05-02T13:48:32.253Z,20.70
2019-05-02T13:51:01.220Z,21.20
2019-05-02T13:53:32.010Z,21.80
2019-05-02T13:56:18.661Z,22.00
2019-05-02T13:58:47.484Z,22.40
2019-05-02T14:01:17.514Z,22.10
2019-05-02T14:03:46.579Z,21.90
2019-05-02T14:06:15.426Z,21.60
2019-05-02T14:08:55.601Z,21.30
2019-05-02T14:11:43.505Z,21.40
2019-05-02T14:14:12.464Z,21.40
2019-05-02T14:16:42.007Z,21.00
2019-05-02T14:19:12.608Z,20.40
2019-05-02T14:21:42.194Z,20.40
2019-05-02T14:24:11.789Z,20.40
2019-05-02T14:26:43.271Z,20.00
2019-05-02T14:29:16.135Z,19.90
2019-05-02T14:31:42.669Z,19.60
2019-05-02T14:34:48.736Z,19.30
2019-05-02T14:37:17.852Z,19.10
2019-05-02T14:39:48.638Z,18.50
2019-05-02T14:42:24.466Z,18.50
2019-05-02T14:45:05.299Z,18.60
2019-05-02T14:47:19.760Z,19.00
2019-05-02T14:49:48.713Z,19.10
2019-05-02T14:52:17.461Z,18.80
2019-05-02T14:54:48.008Z,18.70
2019-05-02T14:57:22.946Z,19.20
2019-05-02T14:59:50.422Z,19.70
2019-05-02T15:02:39.352Z,20.20
2019-05-02T15:05:07.742Z,20.00
2019-05-02T15:07:38.472Z,20.20
2019-05-02T15:10:07.530Z,19.80
2019-05-02T15:12:36.342Z,19.30
2019-05-02T15:15:06.020Z,19.60
2019-05-02T15:17:37.817Z,20.20
2019-05-02T15:20:06.618Z,20.40
2019-05-02T15:22:37.447Z,20.40
2019-05-02T15:25:12.170Z,20.40
2019-05-02T15:27:41.831Z,20.50
2019-05-02T15:30:09.657Z,20.20
2019-05-02T15:32:56.025Z,19.80
2019-05-02T15:35:29.174Z,19.50
2019-05-02T15:38:02.549Z,19.50
2019-05-02T15:43:02.826Z,19.70
2019-05-02T15:45:27.710Z,19.60
2019-05-02T15:47:56.864Z,19.50
2019-05-02T15:50:25.947Z,19.10
2019-05-02T15:53:09.939Z,18.40
2019-05-02T15:55:39.352Z,18.20
2019-05-02T15:58:17.104Z,18.00
2019-05-02T16:00:48.652Z,17.80
2019-05-02T16:03:19.836Z,17.60
2019-05-02T16:05:47.891Z,17.70
2019-05-02T16:08:16.631Z,17.70
2019-05-02T16:10:45.419Z,17.60
2019-05-02T16:13:17.117Z,17.60
2019-05-02T16:15:44.891Z,17.60
2019-05-02T16:18:13.576Z,17.50
2019-05-02T16:21:07.636Z,17.40
2019-05-02T16:23:35.865Z,17.20
2019-05-02T16:26:06.457Z,17.20
2019-05-02T16:28:36.942Z,17.10
2019-05-02T16:31:09.268Z,17.10
2019-05-02T16:33:38.034Z,17.00
2019-05-02T16:36:06.859Z,17.20
2019-05-02T16:38:35.636Z,17.20
2019-05-02T16:41:09.906Z,17.40
2019-05-02T16:43:36.915Z,17.40
2019-05-02T16:46:06.628Z,17.40
2019-05-02T16:48:37.718Z,17.40
2019-05-02T16:51:27.666Z,17.20
2019-05-02T16:53:37.823Z,17.20
2019-05-02T16:56:07.196Z,17.00
2019-05-02T16:58:38.026Z,17.10
2019-05-02T17:01:07.401Z,17.00
2019-05-02T17:03:37.385Z,16.90
2019-05-02T17:06:06.552Z,16.90
2019-05-02T17:08:58.645Z,16.90
2019-05-02T17:11:34.505Z,16.70
2019-05-02T17:14:02.282Z,16.60
2019-05-02T17:16:31.625Z,16.50
2019-05-02T17:19:01.670Z,16.50
2019-05-02T17:21:35.060Z,16.50
2019-05-02T17:24:02.586Z,16.40
2019-05-02T17:26:31.826Z,16.20
2019-05-02T17:29:02.540Z,16.20
2019-05-02T17:31:32.209Z,16.00
2019-05-02T17:34:02.780Z,16.00
2019-05-02T17:36:32.517Z,15.90
2019-05-02T17:39:06.342Z,15.70
2019-05-02T17:41:32.135Z,15.60
2019-05-02T17:44:03.066Z,15.50
2019-05-02T17:46:31.759Z,15.40
2019-05-02T17:49:02.422Z,15.30
2019-05-02T17:51:37.897Z,15.30
2019-05-02T17:54:08.524Z,15.10
2019-05-02T17:56:37.395Z,15.00
2019-05-02T17:59:06.575Z,14.90
2019-05-02T18:01:38.735Z,14.80
2019-05-02T18:04:12.741Z,14.80
2019-05-02T18:06:38.103Z,14.70
2019-05-02T18:09:08.543Z,14.60
2019-05-02T18:11:37.880Z,14.50
2019-05-02T18:14:16.184Z,14.50
2019-05-02T18:16:39.252Z,14.60
2019-05-02T18:19:08.611Z,14.60
2019-05-02T18:21:37.428Z,14.60
2019-05-02T18:24:06.289Z,14.60
2019-05-02T18:26:35.129Z,14.60
2019-05-02T18:29:06.752Z,14.60
2019-05-02T18:31:34.901Z,14.50
2019-05-02T18:34:05.287Z,14.60
2019-05-02T18:36:34.136Z,14.50
2019-05-02T18:39:05.189Z,14.50
2019-05-02T18:41:37.369Z,14.40
2019-05-02T18:44:04.281Z,14.40
2019-05-02T18:46:36.694Z,14.30
2019-05-02T18:49:04.334Z,14.20
2019-05-02T18:51:33.292Z,14.30
2019-05-02T18:54:04.552Z,14.30
2019-05-02T18:56:35.583Z,14.20
2019-05-02T18:59:03.318Z,14.10
2019-05-02T19:01:32.384Z,14.10
2019-05-02T19:04:02.077Z,14.10
2019-05-02T19:06:33.301Z,14.00
2019-05-02T19:09:06.386Z,13.90
2019-05-02T19:11:35.398Z,13.90
2019-05-02T19:14:05.160Z,14.00
2019-05-02T19:16:34.122Z,13.80
2019-05-02T19:19:03.049Z,13.60
2019-05-02T19:21:36.043Z,13.50
2019-05-02T19:24:02.678Z,13.40
2019-05-02T19:26:32.623Z,13.30
2019-05-02T19:29:17.310Z,13.20
2019-05-02T19:31:48.376Z,13.30
2019-05-02T19:34:24.722Z,13.20
2019-05-02T19:36:47.748Z,13.20
2019-05-02T19:39:16.692Z,13.10
2019-05-02T19:41:45.672Z,13.00
2019-05-02T19:44:15.396Z,12.90
2019-05-02T19:46:44.415Z,12.80
2019-05-02T19:49:16.130Z,12.80
2019-05-02T19:51:44.671Z,12.70
2019-05-02T19:54:13.558Z,12.80
2019-05-02T19:56:46.933Z,12.80
2019-05-02T19:59:16.679Z,12.60
2019-05-02T20:01:43.879Z,12.60
2019-05-02T20:04:12.727Z,12.50
2019-05-02T20:06:41.894Z,12.50
2019-05-02T20:09:11.237Z,12.50
2019-05-02T20:11:40.063Z,12.40
2019-05-02T20:14:09.654Z,12.30
2019-05-02T20:16:48.415Z,12.20
2019-05-02T20:19:22.072Z,12.20
2019-05-02T20:22:02.861Z,12.20
2019-05-02T20:24:49.206Z,12.20
2019-05-02T20:27:17.643Z,12.10
2019-05-02T20:29:46.450Z,12.10
2019-05-02T20:32:15.221Z,12.00
2019-05-02T20:34:44.357Z,12.00
2019-05-02T20:37:13.099Z,11.80
2019-05-02T20:39:42.090Z,11.70
2019-05-02T20:42:12.142Z,11.70
2019-05-02T20:44:41.893Z,11.60
2019-05-02T20:47:14.875Z,11.60
2019-05-02T20:49:43.812Z,11.70
2019-05-02T20:52:12.672Z,11.70
2019-05-02T20:54:42.790Z,11.60
2019-05-02T20:57:12.084Z,11.50
2019-05-02T20:59:41.732Z,11.50
2019-05-02T21:02:12.229Z,11.40
2019-05-02T21:04:42.530Z,11.50
2019-05-02T21:07:32.863Z,11.50
2019-05-02T21:10:09.478Z,11.50
2019-05-02T21:12:38.205Z,11.50
2019-05-02T21:15:07.173Z,11.60
2019-05-02T21:17:35.931Z,11.50
2019-05-02T21:20:05.420Z,11.40
2019-05-02T21:22:35.326Z,11.30
2019-05-02T21:25:04.678Z,11.20
2019-05-02T21:27:33.505Z,11.00
2019-05-02T21:30:02.957Z,11.00
2019-05-02T21:32:32.157Z,11.00
2019-05-02T21:35:02.821Z,11.00
2019-05-02T21:37:32.112Z,11.10
2019-05-02T21:40:02.691Z,11.10
2019-05-02T21:42:31.835Z,11.10
2019-05-02T21:45:02.428Z,11.00
2019-05-02T21:47:31.871Z,10.90
2019-05-02T21:50:22.768Z,10.90
2019-05-02T21:53:19.780Z,10.90
2019-05-02T21:56:02.867Z,10.80
2019-05-02T21:58:32.345Z,10.70
2019-05-02T22:01:12.768Z,10.60
2019-05-02T22:03:41.607Z,10.50
2019-05-02T22:06:12.256Z,10.60
2019-05-02T22:08:41.765Z,10.50
2019-05-02T22:11:12.199Z,10.50
2019-05-02T22:13:42.287Z,10.40
2019-05-02T22:16:12.934Z,10.30
2019-05-02T22:18:42.767Z,10.30
2019-05-02T22:21:12.286Z,10.30
2019-05-02T22:23:42.513Z,10.10
2019-05-02T22:26:12.795Z,10.00
2019-05-02T22:28:41.707Z,9.90
2019-05-02T22:31:12.262Z,10.10
2019-05-02T22:33:42.123Z,10.20
2019-05-02T22:36:12.374Z,10.40
2019-05-02T22:38:55.539Z,10.40
2019-05-02T22:41:24.262Z,10.60
2019-05-02T22:43:53.375Z,10.60
2019-05-02T22:46:43.314Z,10.60
2019-05-02T22:49:14.666Z,10.40
2019-05-02T22:51:44.241Z,10.50
2019-05-02T22:54:24.067Z,10.40
2019-05-02T22:56:43.790Z,10.40
2019-05-02T22:59:12.811Z,10.30
2019-05-02T23:01:42.292Z,10.20
2019-05-02T23:04:12.833Z,10.30
2019-05-02T23:06:43.947Z,10.20
2019-05-02T23:09:12.863Z,10.20
2019-05-02T23:11:42.707Z,10.20
2019-05-02T23:14:11.707Z,10.10
2019-05-02T23:16:42.750Z,10.10
2019-05-02T23:19:12.313Z,10.10
2019-05-02T23:21:42.181Z,10.10
2019-05-02T23:24:17.439Z,10.20
2019-05-02T23:26:52.817Z,10.30
2019-05-02T23:29:22.564Z,10.30
2019-05-02T23:31:51.868Z,10.30
2019-05-02T23:34:23.339Z,10.40
2019-05-02T23:36:52.160Z,10.40
2019-05-02T23:39:21.745Z,10.40
2019-05-02T23:41:52.371Z,10.50
2019-05-02T23:44:22.709Z,10.50
2019-05-02T23:46:52.466Z,10.50
2019-05-02T23:49:22.060Z,10.50
2019-05-02T23:51:50.923Z,10.60
2019-05-02T23:54:19.674Z,10.50
2019-05-02T23:56:48.511Z,10.50
2019-05-02T23:59:17.522Z,10.50
